This is the latest recevied weather packets stored in our database for station/object KP3M-5. If no packets are shown the sender has not sent any weather packets the latest 10 day(s).
| Time | Temp. | Humidity | Pressure | Rain* | Wind** | Luminosity | Snow |
|---|---|---|---|---|---|---|---|
| 1788127505 | 75° F | 90% | 768.1 mmHg | - | - | - | - |
| 1788127204 | 75° F | 90% | 768.1 mmHg | - | - | - | - |
| 1788123904 | 75° F | 89% | 768.1 mmHg | - | - | - | - |
| 1788120305 | 76° F | 84% | 768.1 mmHg | - | - | - | - |
| 1788116705 | 75° F | 97% | 768.1 mmHg | - | - | - | - |
| 1788113104 | 78° F | 90% | 768.1 mmHg | - | - | - | - |
| 1788109509 | 78° F | 88% | 768.1 mmHg | - | - | - | - |
| 1788105904 | 79° F | 88% | 768.1 mmHg | - | - | - | - |
| 1788102303 | 81° F | 83% | 768.1 mmHg | - | - | - | - |
| 1788098704 | 81° F | 83% | 768.1 mmHg | - | - | - | - |
| 1788095104 | 77° F | 83% | 768.1 mmHg | - | - | - | - |
| 1788091503 | 76° F | 85% | 768.1 mmHg | - | - | - | - |
| 1788087904 | 76° F | 85% | 768.1 mmHg | - | - | - | - |
| 1788084304 | 76° F | 87% | 768.1 mmHg | - | - | - | - |
| 1788080704 | 76° F | 86% | 768.1 mmHg | - | - | - | - |
| 1788077103 | 77° F | 85% | 768.1 mmHg | - | - | - | - |
| 1788041104 | 82° F | 77% | 768.1 mmHg | - | - | - | - |
| 1788037504 | 84° F | 71% | 768.1 mmHg | - | - | - | - |
| 1788033903 | 85° F | 68% | 768.1 mmHg | - | - | - | - |
| 1788030305 | 86° F | 65% | 768.1 mmHg | - | - | - | - |
| 1788026704 | 86° F | 63% | 768.1 mmHg | - | - | - | - |
| 1788023103 | 87° F | 63% | 768.1 mmHg | - | - | - | - |
| 1788019504 | 86° F | 67% | 768.1 mmHg | - | - | - | - |
| 1788015903 | 84° F | 71% | 768.1 mmHg | - | - | - | - |
| 1788012304 | 82° F | 76% | 768.1 mmHg | - | - | - | - |
* Rain since midnight (hover to see other rain measurements)
** Current wind speed in m/s (hover to see current wind gust speed)